Time;durP1;ratioP1;P1;durP2;ratioP2;P2;SDS_P1;SDS_P2;PMS_P1;PMS_P2;Temp;Humidity;BMP_temperature;BMP_pressure;BME280_temperature;BME280_humidity;BME280_pressure;Samples;Min_cycle;Max_cycle;Signal;HPM_P1;HPM_P2
2022/07/02 00:00:21;;;;;;;5.47;2.03;;;;;;;;;;5064769;28;20138;-65
2022/07/02 00:02:50;;;;;;;8.75;1.70;;;;;;;;;;5079575;28;20497;-65
2022/07/02 00:05:20;;;;;;;6.65;2.00;;;;;;;;;;5080119;28;20049;-65
2022/07/02 00:07:46;;;;;;;6.50;2.40;;;;;;;;;;5064721;28;20060;-65
2022/07/02 00:10:14;;;;;;;6.28;1.92;;;;;;;;;;5080387;28;20133;-65
2022/07/02 00:12:40;;;;;;;6.93;1.63;;;;;;;;;;5080084;28;20060;-65
2022/07/02 00:15:07;;;;;;;10.52;2.42;;;;;;;;;;5093171;28;20048;-65
2022/07/02 00:17:33;;;;;;;5.57;2.17;;;;;;;;;;5064956;28;20106;-65
2022/07/02 00:20:01;;;;;;;2.90;2.05;;;;;;;;;;5080134;28;20054;-65
2022/07/02 00:22:28;;;;;;;6.22;1.92;;;;;;;;;;5064467;28;20045;-65
2022/07/02 00:24:54;;;;;;;6.83;1.90;;;;;;;;;;5064691;28;20047;-65
2022/07/02 00:27:20;;;;;;;5.70;1.63;;;;;;;;;;5064162;28;20071;-65
2022/07/02 00:30:00;;;;;;;6.85;2.00;;;;;;;;;;5072268;28;20041;-65
2022/07/02 00:32:32;;;;;;;6.65;2.22;;;;;;;;;;5068276;28;20044;-65
2022/07/02 00:34:58;;;;;;;6.93;1.98;;;;;;;;;;5064469;28;20045;-65
2022/07/02 00:37:28;;;;;;;3.03;1.88;;;;;;;;;;5079620;28;20049;-65
2022/07/02 00:39:55;;;;;;;7.72;2.17;;;;;;;;;;5084640;28;20052;-65
2022/07/02 00:42:24;;;;;;;12.43;2.65;;;;;;;;;;5084708;28;20132;-65
2022/07/02 00:44:50;;;;;;;6.97;3.17;;;;;;;;;;5082786;28;20045;-65
2022/07/02 00:47:17;;;;;;;7.55;2.22;;;;;;;;;;5067800;28;20049;-65
2022/07/02 00:49:43;;;;;;;5.50;2.28;;;;;;;;;;5068457;28;20082;-65
2022/07/02 00:52:09;;;;;;;7.03;2.53;;;;;;;;;;5068401;28;20401;-65
2022/07/02 00:54:35;;;;;;;7.47;3.13;;;;;;;;;;5084048;28;20053;-65
2022/07/02 00:57:02;;;;;;;5.72;2.28;;;;;;;;;;5067943;28;20068;-65
2022/07/02 00:59:29;;;;;;;6.85;2.53;;;;;;;;;;5068248;28;20049;-65
2022/07/02 01:01:55;;;;;;;11.05;3.30;;;;;;;;;;5081577;28;20055;-65
2022/07/02 01:04:23;;;;;;;5.85;2.72;;;;;;;;;;5068220;28;20095;-65
2022/07/02 01:06:49;;;;;;;12.20;3.05;;;;;;;;;;5067981;28;20049;-65
2022/07/02 01:12:03;;;;;;;6.30;2.75;;;;;;;;;;5081891;28;20056;-65
2022/07/02 01:14:29;;;;;;;5.32;3.00;;;;;;;;;;5083588;28;20063;-65
2022/07/02 01:16:56;;;;;;;6.05;2.70;;;;;;;;;;5067560;28;20092;-65
2022/07/02 01:19:23;;;;;;;4.70;2.70;;;;;;;;;;5067936;28;20104;-65
2022/07/02 01:22:07;;;;;;;5.05;2.80;;;;;;;;;;5067750;28;20053;-65
2022/07/02 01:24:34;;;;;;;5.90;2.97;;;;;;;;;;5074700;28;20048;-65
2022/07/02 01:27:00;;;;;;;4.80;2.33;;;;;;;;;;5087496;28;20071;-65
2022/07/02 01:29:26;;;;;;;4.40;2.40;;;;;;;;;;5073547;28;20060;-65
2022/07/02 01:31:52;;;;;;;7.95;2.63;;;;;;;;;;5076391;28;20044;-65
2022/07/02 01:34:18;;;;;;;6.50;2.58;;;;;;;;;;5067694;28;20074;-65
2022/07/02 01:36:44;;;;;;;7.57;2.35;;;;;;;;;;5067450;28;20051;-65
2022/07/02 01:39:10;;;;;;;11.63;2.60;;;;;;;;;;5067544;28;20071;-65
2022/07/02 01:41:39;;;;;;;10.55;3.25;;;;;;;;;;5067080;28;20095;-65
2022/07/02 01:44:09;;;;;;;6.60;2.70;;;;;;;;;;5077206;28;20048;-65
2022/07/02 01:46:35;;;;;;;8.05;2.40;;;;;;;;;;5070583;28;20084;-65
2022/07/02 01:49:02;;;;;;;8.73;2.70;;;;;;;;;;5067627;28;20037;-65
2022/07/02 01:51:28;;;;;;;7.15;2.22;;;;;;;;;;5082662;28;20057;-65
2022/07/02 01:53:55;;;;;;;5.40;2.60;;;;;;;;;;5082639;28;20047;-65
2022/07/02 01:56:21;;;;;;;5.97;2.67;;;;;;;;;;5067125;28;20053;-65
2022/07/02 01:58:47;;;;;;;6.20;2.60;;;;;;;;;;5071617;28;20047;-65
2022/07/02 02:01:13;;;;;;;9.95;3.05;;;;;;;;;;5087085;28;20045;-65
2022/07/02 02:03:39;;;;;;;6.63;2.63;;;;;;;;;;5071120;28;20055;-65
2022/07/02 02:06:05;;;;;;;7.30;2.47;;;;;;;;;;5077286;28;20044;-65
2022/07/02 02:08:31;;;;;;;7.82;2.83;;;;;;;;;;5082086;28;20489;-65
2022/07/02 02:10:58;;;;;;;5.28;2.50;;;;;;;;;;5082345;28;20128;-66
2022/07/02 02:13:24;;;;;;;5.63;3.40;;;;;;;;;;5067222;28;20037;-65
2022/07/02 02:15:50;;;;;;;5.75;2.85;;;;;;;;;;5066765;28;20045;-65
2022/07/02 02:18:16;;;;;;;7.53;3.17;;;;;;;;;;5084566;28;20481;-65
2022/07/02 02:20:43;;;;;;;9.85;2.88;;;;;;;;;;5086668;28;20048;-65
2022/07/02 02:23:09;;;;;;;7.05;2.55;;;;;;;;;;5083175;28;20059;-65
2022/07/02 02:25:35;;;;;;;6.80;2.60;;;;;;;;;;5086751;28;20340;-65
2022/07/02 02:28:01;;;;;;;7.35;3.28;;;;;;;;;;5085190;28;20072;-65
2022/07/02 02:30:27;;;;;;;5.70;2.78;;;;;;;;;;5079067;28;20128;-65
2022/07/02 02:32:53;;;;;;;5.30;2.90;;;;;;;;;;5065963;28;20057;-65
2022/07/02 02:35:19;;;;;;;8.40;3.05;;;;;;;;;;5087243;28;20412;-65
2022/07/02 02:37:45;;;;;;;6.70;3.00;;;;;;;;;;5085268;28;20127;-65
2022/07/02 02:40:11;;;;;;;8.63;3.00;;;;;;;;;;5072245;28;20040;-65
2022/07/02 02:42:37;;;;;;;8.23;2.83;;;;;;;;;;5076578;28;20479;-65
2022/07/02 02:45:04;;;;;;;6.82;2.78;;;;;;;;;;5067980;28;20041;-65
2022/07/02 02:47:30;;;;;;;8.18;2.60;;;;;;;;;;5078176;28;20049;-65
2022/07/02 02:49:56;;;;;;;8.57;3.25;;;;;;;;;;5082042;28;20091;-65
2022/07/02 02:52:22;;;;;;;10.85;3.30;;;;;;;;;;5071216;28;20475;-65
2022/07/02 02:54:48;;;;;;;12.73;3.40;;;;;;;;;;5073487;28;20036;-65
2022/07/02 02:57:14;;;;;;;7.32;2.92;;;;;;;;;;5065866;28;20045;-65
2022/07/02 02:59:40;;;;;;;9.15;3.15;;;;;;;;;;5065936;28;20056;-65
2022/07/02 03:02:07;;;;;;;11.43;3.38;;;;;;;;;;5065154;28;20057;-65
2022/07/02 03:04:33;;;;;;;10.63;3.45;;;;;;;;;;5065626;28;20096;-65
2022/07/02 03:07:00;;;;;;;11.30;3.58;;;;;;;;;;5078766;28;20070;-65
2022/07/02 03:09:26;;;;;;;6.70;2.90;;;;;;;;;;5075094;28;20094;-65
2022/07/02 03:11:52;;;;;;;10.65;2.97;;;;;;;;;;5072338;28;20097;-65
2022/07/02 03:14:18;;;;;;;9.43;3.10;;;;;;;;;;5065609;28;20097;-65
2022/07/02 03:16:44;;;;;;;12.32;3.15;;;;;;;;;;5065215;28;20403;-65
2022/07/02 03:19:10;;;;;;;7.72;2.92;;;;;;;;;;5067700;28;20040;-65
2022/07/02 03:21:36;;;;;;;7.70;3.45;;;;;;;;;;5077532;28;20048;-65
2022/07/02 03:24:03;;;;;;;7.13;2.80;;;;;;;;;;5081002;28;20048;-65
2022/07/02 03:26:29;;;;;;;22.98;4.75;;;;;;;;;;5070443;28;20135;-65
2022/07/02 03:28:55;;;;;;;9.05;3.25;;;;;;;;;;5085676;28;20056;-65
2022/07/02 03:31:21;;;;;;;7.85;2.55;;;;;;;;;;5071394;28;20105;-65
2022/07/02 03:33:47;;;;;;;7.97;3.28;;;;;;;;;;5075556;28;20041;-65
2022/07/02 03:36:13;;;;;;;9.15;3.28;;;;;;;;;;5065262;28;20047;-65
2022/07/02 03:38:40;;;;;;;8.27;2.92;;;;;;;;;;5065021;28;20045;-65
2022/07/02 03:41:06;;;;;;;6.57;2.95;;;;;;;;;;5065322;28;20041;-65
2022/07/02 03:43:32;;;;;;;6.85;2.80;;;;;;;;;;5080426;28;20073;-65
2022/07/02 03:45:59;;;;;;;3.95;2.85;;;;;;;;;;5065137;28;20108;-65
2022/07/02 03:48:25;;;;;;;7.55;2.75;;;;;;;;;;5080112;28;20045;-65
2022/07/02 03:50:51;;;;;;;6.25;3.20;;;;;;;;;;5080644;28;20123;-65
2022/07/02 03:53:17;;;;;;;6.13;2.47;;;;;;;;;;5096190;28;20045;-65
2022/07/02 03:55:43;;;;;;;11.50;3.05;;;;;;;;;;5077305;28;20045;-65
2022/07/02 03:58:09;;;;;;;9.07;3.53;;;;;;;;;;5064734;28;20124;-65
2022/07/02 04:00:35;;;;;;;6.50;2.90;;;;;;;;;;5094174;28;20049;-65
2022/07/02 04:03:02;;;;;;;9.88;2.80;;;;;;;;;;5079709;28;20056;-65
2022/07/02 04:05:28;;;;;;;9.00;3.00;;;;;;;;;;5064625;28;20045;-65
2022/07/02 04:07:54;;;;;;;7.18;2.88;;;;;;;;;;5064672;28;20048;-65
2022/07/02 04:10:20;;;;;;;4.10;2.70;;;;;;;;;;5064754;28;20051;-65
2022/07/02 04:12:46;;;;;;;5.53;3.28;;;;;;;;;;5064458;28;20049;-65
2022/07/02 04:15:12;;;;;;;8.80;2.90;;;;;;;;;;5079880;28;20041;-65
2022/07/02 04:17:38;;;;;;;8.57;2.67;;;;;;;;;;5064013;28;20512;-65
2022/07/02 04:20:05;;;;;;;10.63;3.47;;;;;;;;;;5064688;28;20048;-65
2022/07/02 04:22:31;;;;;;;9.52;2.70;;;;;;;;;;5068597;28;20049;-65
2022/07/02 04:24:57;;;;;;;8.95;3.35;;;;;;;;;;5084561;28;20123;-65
2022/07/02 04:27:23;;;;;;;7.95;3.05;;;;;;;;;;5084424;28;20097;-65
2022/07/02 04:29:49;;;;;;;12.65;3.70;;;;;;;;;;5081427;28;20045;-65
2022/07/02 04:32:15;;;;;;;11.45;3.10;;;;;;;;;;5074765;28;20127;-65
2022/07/02 04:34:42;;;;;;;11.02;3.15;;;;;;;;;;5066192;28;20052;-65
2022/07/02 04:37:08;;;;;;;12.35;3.13;;;;;;;;;;5064223;28;20045;-64
2022/07/02 04:39:34;;;;;;;9.13;2.97;;;;;;;;;;5064314;28;20559;-64
2022/07/02 04:42:00;;;;;;;8.57;2.92;;;;;;;;;;5079773;28;20080;-64
2022/07/02 04:44:26;;;;;;;11.57;3.38;;;;;;;;;;5064567;28;20037;-64
2022/07/02 04:46:53;;;;;;;8.55;3.40;;;;;;;;;;5084401;28;20051;-64
2022/07/02 04:49:19;;;;;;;6.82;3.40;;;;;;;;;;5084295;28;20116;-64
2022/07/02 04:51:45;;;;;;;9.18;4.18;;;;;;;;;;5067009;28;20045;-64
2022/07/02 04:54:11;;;;;;;10.10;3.38;;;;;;;;;;5064498;28;20041;-64
2022/07/02 04:56:37;;;;;;;9.80;3.80;;;;;;;;;;5065150;28;20057;-64
2022/07/02 04:59:03;;;;;;;16.75;3.88;;;;;;;;;;5076913;28;20037;-64
2022/07/02 05:01:30;;;;;;;5.55;3.40;;;;;;;;;;5078955;28;20084;-64
2022/07/02 05:03:56;;;;;;;14.57;4.80;;;;;;;;;;5079478;28;20068;-64
2022/07/02 05:06:23;;;;;;;9.68;4.45;;;;;;;;;;5075772;28;20040;-64
2022/07/02 05:08:49;;;;;;;13.82;5.00;;;;;;;;;;5080682;28;20100;-64
2022/07/02 05:11:16;;;;;;;9.70;4.32;;;;;;;;;;5064153;28;20092;-64
2022/07/02 05:13:45;;;;;;;10.50;5.77;;;;;;;;;;5079409;28;20107;-64
2022/07/02 05:16:11;;;;;;;7.28;4.82;;;;;;;;;;5064166;28;20072;-64
2022/07/02 05:18:38;;;;;;;8.60;5.32;;;;;;;;;;5063753;28;20056;-64
2022/07/02 05:21:04;;;;;;;9.50;5.35;;;;;;;;;;5077585;28;20072;-64
2022/07/02 05:23:30;;;;;;;10.40;6.18;;;;;;;;;;5079385;28;20081;-64
2022/07/02 05:25:56;;;;;;;8.68;5.90;;;;;;;;;;5094234;28;20041;-64
2022/07/02 05:28:23;;;;;;;8.40;5.43;;;;;;;;;;5078014;28;20037;-64
2022/07/02 05:30:49;;;;;;;11.88;6.43;;;;;;;;;;5067793;28;20060;-64
2022/07/02 05:33:16;;;;;;;12.45;5.70;;;;;;;;;;5082371;28;20076;-64
2022/07/02 05:35:42;;;;;;;12.70;5.75;;;;;;;;;;5078580;28;20088;-64
2022/07/02 05:38:08;;;;;;;13.43;5.78;;;;;;;;;;5078115;28;20158;-64
2022/07/02 05:40:34;;;;;;;8.82;5.28;;;;;;;;;;5077278;28;20045;-65
2022/07/02 05:43:00;;;;;;;11.93;5.63;;;;;;;;;;5067341;28;20052;-64
2022/07/02 05:45:26;;;;;;;11.30;5.32;;;;;;;;;;5067574;28;20053;-64
2022/07/02 05:47:53;;;;;;;5.78;4.70;;;;;;;;;;5082585;28;20113;-64
2022/07/02 05:50:19;;;;;;;7.43;4.47;;;;;;;;;;5067204;28;20105;-64
2022/07/02 05:52:45;;;;;;;7.07;4.18;;;;;;;;;;5067296;28;20077;-65
2022/07/02 05:55:11;;;;;;;7.78;4.80;;;;;;;;;;5067043;28;20045;-64
2022/07/02 05:57:38;;;;;;;8.10;4.47;;;;;;;;;;5067053;28;20051;-65
2022/07/02 06:00:05;;;;;;;9.73;4.32;;;;;;;;;;5067039;28;20067;-65
2022/07/02 06:02:31;;;;;;;9.75;4.72;;;;;;;;;;5074289;28;20139;-65
2022/07/02 06:04:57;;;;;;;8.40;4.60;;;;;;;;;;5073183;28;20115;-65
2022/07/02 06:07:43;;;;;;;9.60;4.30;;;;;;;;;;5080952;28;20056;-65
2022/07/02 06:10:10;;;;;;;8.25;3.47;;;;;;;;;;5066857;28;20580;-65
2022/07/02 06:12:36;;;;;;;9.13;4.05;;;;;;;;;;5066751;28;20048;-65
2022/07/02 06:15:03;;;;;;;7.07;3.72;;;;;;;;;;5066979;28;20048;-65
2022/07/02 06:17:29;;;;;;;8.13;3.45;;;;;;;;;;5080272;28;20052;-65
2022/07/02 06:19:55;;;;;;;9.73;3.20;;;;;;;;;;5066861;28;20045;-65
2022/07/02 06:22:22;;;;;;;5.85;2.88;;;;;;;;;;5066603;28;20131;-65
2022/07/02 06:24:48;;;;;;;7.65;3.72;;;;;;;;;;5066878;28;20055;-65
2022/07/02 06:27:14;;;;;;;7.30;3.28;;;;;;;;;;5081751;28;20127;-65
2022/07/02 06:29:41;;;;;;;8.38;2.97;;;;;;;;;;5070028;28;20040;-65
2022/07/02 06:32:08;;;;;;;12.02;3.97;;;;;;;;;;5076303;28;20094;-64
2022/07/02 06:34:34;;;;;;;9.13;2.78;;;;;;;;;;5066369;28;20131;-64
2022/07/02 06:37:00;;;;;;;9.93;3.42;;;;;;;;;;5066549;28;20033;-64
2022/07/02 06:39:27;;;;;;;9.35;3.70;;;;;;;;;;5066069;28;20053;-64
2022/07/02 06:44:38;;;;;;;6.70;2.88;;;;;;;;;;5066772;28;20099;-64
2022/07/02 06:47:05;;;;;;;9.25;2.70;;;;;;;;;;5094489;28;20517;-64
2022/07/02 06:49:31;;;;;;;6.95;2.53;;;;;;;;;;5066122;28;20072;-64
2022/07/02 06:51:57;;;;;;;7.93;2.80;;;;;;;;;;5080834;28;20543;-64
2022/07/02 06:54:23;;;;;;;11.15;3.17;;;;;;;;;;5081601;28;20128;-64
2022/07/02 06:56:49;;;;;;;6.78;2.55;;;;;;;;;;5081227;28;20060;-64
2022/07/02 06:59:15;;;;;;;8.40;2.42;;;;;;;;;;5065964;28;20047;-64
2022/07/02 07:01:41;;;;;;;7.75;2.60;;;;;;;;;;5066127;28;20484;-64
2022/07/02 07:04:07;;;;;;;8.68;2.17;;;;;;;;;;5077702;28;20116;-64
2022/07/02 07:06:44;;;;;;;8.43;2.83;;;;;;;;;;5078812;28;20058;-64
2022/07/02 07:09:11;;;;;;;6.27;2.33;;;;;;;;;;5066123;28;20041;-64
2022/07/02 07:11:37;;;;;;;4.32;1.90;;;;;;;;;;5065702;28;20619;-64
2022/07/02 07:14:03;;;;;;;4.93;1.83;;;;;;;;;;5065246;28;20041;-64
2022/07/02 07:16:29;;;;;;;4.40;1.67;;;;;;;;;;5077293;28;20040;-64
2022/07/02 07:18:59;;;;;;;4.57;2.00;;;;;;;;;;5088295;28;20045;-64
2022/07/02 07:21:25;;;;;;;5.32;1.73;;;;;;;;;;5090012;28;20052;-64
2022/07/02 07:23:52;;;;;;;6.57;1.80;;;;;;;;;;5080705;28;20048;-64
2022/07/02 07:26:18;;;;;;;4.22;1.70;;;;;;;;;;5092601;28;20037;-64
2022/07/02 07:28:44;;;;;;;4.70;1.88;;;;;;;;;;5085547;28;20076;-64
2022/07/02 07:31:10;;;;;;;13.20;1.70;;;;;;;;;;5075895;28;20044;-64
2022/07/02 07:33:37;;;;;;;9.10;1.65;;;;;;;;;;5080276;28;20083;-64
2022/07/02 07:36:04;;;;;;;3.97;1.40;;;;;;;;;;5070984;28;20068;-64
2022/07/02 07:38:30;;;;;;;4.63;1.63;;;;;;;;;;5086920;28;20088;-64
2022/07/02 07:40:56;;;;;;;4.53;1.73;;;;;;;;;;5077327;28;20084;-64
2022/07/02 07:43:22;;;;;;;5.95;1.40;;;;;;;;;;5066722;28;20044;-64
2022/07/02 07:45:48;;;;;;;7.47;1.60;;;;;;;;;;5079392;28;20040;-64
2022/07/02 07:48:14;;;;;;;10.65;1.50;;;;;;;;;;5083957;28;20103;-64
2022/07/02 07:50:40;;;;;;;3.05;1.48;;;;;;;;;;5094425;28;20591;-64
2022/07/02 07:53:06;;;;;;;4.80;1.80;;;;;;;;;;5092904;28;20437;-64
2022/07/02 07:55:33;;;;;;;3.25;1.50;;;;;;;;;;5080480;28;20123;-64
2022/07/02 07:57:59;;;;;;;2.90;1.20;;;;;;;;;;5063525;28;20084;-63
2022/07/02 08:00:25;;;;;;;2.40;1.20;;;;;;;;;;5078919;28;20092;-64
2022/07/02 08:02:51;;;;;;;5.15;1.70;;;;;;;;;;5089795;28;20044;-64
2022/07/02 08:05:17;;;;;;;2.88;1.52;;;;;;;;;;5071646;28;20059;-64
2022/07/02 08:07:43;;;;;;;5.43;1.90;;;;;;;;;;5073068;28;20058;-64
2022/07/02 08:10:10;;;;;;;4.28;1.50;;;;;;;;;;5070250;28;20083;-64
2022/07/02 08:12:37;;;;;;;8.80;2.37;;;;;;;;;;5084262;28;20040;-64
2022/07/02 08:15:03;;;;;;;4.30;1.13;;;;;;;;;;5101346;28;20044;-64
2022/07/02 08:17:30;;;;;;;3.47;1.25;;;;;;;;;;5086948;28;20067;-65
2022/07/02 08:19:56;;;;;;;2.70;1.10;;;;;;;;;;5073626;28;20049;-65
2022/07/02 08:22:22;;;;;;;3.58;0.73;;;;;;;;;;5078533;28;20049;-64
2022/07/02 08:24:48;;;;;;;4.05;1.42;;;;;;;;;;5080136;28;20053;-65
2022/07/02 08:27:14;;;;;;;6.38;1.33;;;;;;;;;;5075514;28;20048;-64
2022/07/02 08:29:40;;;;;;;6.03;1.30;;;;;;;;;;5067329;28;20093;-64
2022/07/02 08:32:07;;;;;;;3.00;0.77;;;;;;;;;;5063804;28;20502;-64
2022/07/02 08:34:34;;;;;;;5.97;1.30;;;;;;;;;;5064211;28;20037;-65
2022/07/02 08:37:00;;;;;;;5.05;1.20;;;;;;;;;;5064302;28;20295;-63
2022/07/02 08:39:26;;;;;;;8.45;1.42;;;;;;;;;;5064428;28;20051;-63
2022/07/02 08:41:53;;;;;;;4.78;1.60;;;;;;;;;;5063881;28;20087;-63
2022/07/02 08:44:23;;;;;;;5.57;1.55;;;;;;;;;;5079769;28;20053;-64
2022/07/02 08:46:50;;;;;;;4.80;1.48;;;;;;;;;;5063573;28;20053;-65
2022/07/02 08:49:19;;;;;;;2.15;0.88;;;;;;;;;;5093667;28;20076;-63
2022/07/02 08:54:43;;;;;;;1.63;0.90;;;;;;;;;;5059501;28;20057;-62
2022/07/02 08:57:11;;;;;;;2.38;1.02;;;;;;;;;;5064030;28;20101;-65
2022/07/02 08:59:37;;;;;;;2.08;1.08;;;;;;;;;;5072314;28;20055;-64
2022/07/02 09:02:04;;;;;;;2.42;1.30;;;;;;;;;;5082864;28;20037;-63
2022/07/02 09:04:31;;;;;;;2.45;1.13;;;;;;;;;;5076646;28;20098;-63
2022/07/02 09:06:57;;;;;;;16.10;1.33;;;;;;;;;;5068021;28;20052;-63
2022/07/02 09:09:27;;;;;;;5.10;1.48;;;;;;;;;;5083727;28;20114;-63
2022/07/02 09:11:53;;;;;;;2.45;0.73;;;;;;;;;;5067659;28;20076;-63
2022/07/02 09:14:20;;;;;;;2.87;1.13;;;;;;;;;;5090786;28;20047;-63
2022/07/02 09:16:50;;;;;;;4.00;0.82;;;;;;;;;;5080101;28;20076;-63
2022/07/02 09:19:17;;;;;;;1.33;0.63;;;;;;;;;;5073414;28;20466;-63
2022/07/02 09:21:43;;;;;;;1.80;0.55;;;;;;;;;;5075754;28;20045;-65
2022/07/02 09:24:10;;;;;;;9.35;0.82;;;;;;;;;;5067965;28;20037;-65
2022/07/02 09:26:36;;;;;;;5.43;0.73;;;;;;;;;;5073583;28;20059;-64
2022/07/02 09:29:03;;;;;;;4.10;0.90;;;;;;;;;;5074559;28;20511;-64
2022/07/02 09:31:30;;;;;;;2.25;0.82;;;;;;;;;;5067273;28;20106;-65
2022/07/02 09:33:57;;;;;;;1.38;0.60;;;;;;;;;;5082927;28;20051;-65
2022/07/02 09:36:24;;;;;;;2.47;1.00;;;;;;;;;;5067625;28;20045;-62
2022/07/02 09:38:51;;;;;;;2.25;0.55;;;;;;;;;;5075555;28;20067;-65
2022/07/02 09:41:20;;;;;;;1.77;0.60;;;;;;;;;;5097994;28;20104;-64
2022/07/02 09:43:52;;;;;;;2.58;0.70;;;;;;;;;;5090879;28;20078;-64
2022/07/02 09:46:18;;;;;;;4.22;0.80;;;;;;;;;;5099286;28;20105;-64
2022/07/02 09:48:46;;;;;;;1.80;0.93;;;;;;;;;;5084270;28;20458;-64
2022/07/02 09:51:12;;;;;;;2.42;0.70;;;;;;;;;;5090657;28;20047;-64
2022/07/02 09:54:08;;;;;;;6.03;1.23;;;;;;;;;;5082883;28;20057;-64
2022/07/02 09:56:34;;;;;;;2.72;0.60;;;;;;;;;;5066273;28;20060;-64
2022/07/02 09:59:00;;;;;;;1.17;0.70;;;;;;;;;;5067224;28;20037;-64
2022/07/02 10:01:26;;;;;;;2.50;0.90;;;;;;;;;;5079727;28;20048;-63
2022/07/02 10:03:53;;;;;;;5.03;0.70;;;;;;;;;;5071399;28;20120;-64
2022/07/02 10:06:19;;;;;;;3.25;1.00;;;;;;;;;;5075949;28;20045;-63
2022/07/02 10:08:46;;;;;;;4.47;0.82;;;;;;;;;;5066980;28;20045;-64
2022/07/02 10:11:13;;;;;;;5.85;0.90;;;;;;;;;;5091840;28;20128;-64
2022/07/02 10:13:40;;;;;;;1.17;0.45;;;;;;;;;;5085369;28;20048;-64
2022/07/02 10:16:12;;;;;;;1.98;0.55;;;;;;;;;;5072864;28;20119;-64
2022/07/02 10:18:40;;;;;;;1.92;0.80;;;;;;;;;;5085298;28;20235;-64
2022/07/02 10:21:06;;;;;;;;;;;;;;;;;;5075448;28;20045;-64
2022/07/02 10:23:32;;;;;;;4.93;0.70;;;;;;;;;;5086163;28;19920;-64
2022/07/02 10:25:58;;;;;;;2.13;0.52;;;;;;;;;;5075024;28;20036;-65
2022/07/02 10:28:25;;;;;;;2.28;0.70;;;;;;;;;;5095080;28;20095;-64
2022/07/02 10:30:52;;;;;;;0.60;0.38;;;;;;;;;;5066884;28;20049;-64
2022/07/02 10:33:29;;;;;;;2.15;0.70;;;;;;;;;;5065841;28;20029;-64
2022/07/02 10:35:58;;;;;;;2.47;0.82;;;;;;;;;;5082093;28;20059;-64
2022/07/02 10:38:31;;;;;;;2.78;0.63;;;;;;;;;;5073766;28;20105;-64
2022/07/02 10:40:57;;;;;;;2.05;0.85;;;;;;;;;;5086506;28;20049;-64
2022/07/02 10:43:26;;;;;;;3.50;0.80;;;;;;;;;;5080648;28;20108;-64
2022/07/02 10:46:06;;;;;;;2.45;0.80;;;;;;;;;;5077177;28;20044;-64
2022/07/02 10:48:51;;;;;;;1.25;0.60;;;;;;;;;;5071538;28;20077;-64
2022/07/02 10:51:20;;;;;;;1.52;0.52;;;;;;;;;;5073018;28;20428;-64
2022/07/02 10:53:50;;;;;;;2.88;0.55;;;;;;;;;;5066205;28;20071;-65
2022/07/02 10:56:17;;;;;;;2.88;0.63;;;;;;;;;;5066289;28;20048;-65
2022/07/02 10:58:43;;;;;;;2.80;0.53;;;;;;;;;;5065800;28;20052;-64
2022/07/02 11:01:17;;;;;;;1.38;0.70;;;;;;;;;;5076346;28;20083;-65
2022/07/02 11:03:52;;;;;;;4.05;0.90;;;;;;;;;;5081540;28;20124;-64
2022/07/02 11:06:23;;;;;;;5.03;1.15;;;;;;;;;;5066120;28;20049;-65
2022/07/02 11:08:50;;;;;;;3.13;1.10;;;;;;;;;;5083419;28;20087;-65
2022/07/02 11:11:17;;;;;;;;;;;;;;;;;;5075206;28;20044;-65
2022/07/02 11:13:56;;;;;;;0.80;0.45;;;;;;;;;;5084010;28;19927;-64
2022/07/02 11:16:23;;;;;;;2.00;0.50;;;;;;;;;;5065432;28;20048;-65
2022/07/02 11:18:50;;;;;;;3.80;0.90;;;;;;;;;;5066817;28;20578;-65
2022/07/02 11:21:17;;;;;;;4.05;1.35;;;;;;;;;;5077628;28;20056;-65
2022/07/02 11:23:44;;;;;;;2.13;0.73;;;;;;;;;;5065491;28;20092;-64
2022/07/02 11:26:15;;;;;;;3.83;0.82;;;;;;;;;;5069806;28;20055;-64
2022/07/02 11:28:41;;;;;;;1.63;0.50;;;;;;;;;;5091555;28;20060;-65
2022/07/02 11:31:10;;;;;;;2.95;0.80;;;;;;;;;;5083844;28;20084;-65
2022/07/02 11:33:36;;;;;;;1.67;0.50;;;;;;;;;;5064655;28;20045;-65
2022/07/02 11:36:03;;;;;;;1.10;0.50;;;;;;;;;;5089574;28;20138;-65
2022/07/02 11:38:37;;;;;;;5.33;0.60;;;;;;;;;;5095340;28;20310;-65
2022/07/02 11:41:04;;;;;;;2.38;0.50;;;;;;;;;;5081157;28;20279;-65
2022/07/02 11:43:30;;;;;;;2.67;0.68;;;;;;;;;;5065860;28;20041;-65
2022/07/02 11:45:56;;;;;;;0.93;0.40;;;;;;;;;;5080116;28;20052;-64
2022/07/02 11:48:23;;;;;;;1.50;0.52;;;;;;;;;;5080084;28;20049;-65
2022/07/02 11:50:56;;;;;;;1.33;0.50;;;;;;;;;;5080567;28;20583;-64
2022/07/02 11:53:23;;;;;;;1.20;0.60;;;;;;;;;;5064916;28;20045;-65
2022/07/02 11:55:49;;;;;;;1.65;0.80;;;;;;;;;;5080462;28;20055;-65
2022/07/02 11:58:15;;;;;;;1.33;0.70;;;;;;;;;;5064669;28;20041;-65
2022/07/02 12:00:41;;;;;;;3.80;0.70;;;;;;;;;;5064795;28;20590;-65
2022/07/02 12:03:08;;;;;;;1.50;0.80;;;;;;;;;;5077061;28;20061;-65
2022/07/02 12:05:34;;;;;;;3.65;0.82;;;;;;;;;;5065659;28;20049;-65
2022/07/02 12:08:00;;;;;;;2.75;0.50;;;;;;;;;;5064659;28;20117;-65
2022/07/02 12:10:27;;;;;;;2.47;0.87;;;;;;;;;;5064886;28;20125;-64
2022/07/02 12:12:53;;;;;;;2.50;0.50;;;;;;;;;;5064535;28;20105;-65
2022/07/02 12:15:19;;;;;;;1.27;0.50;;;;;;;;;;5064777;28;20044;-64
2022/07/02 12:17:49;;;;;;;3.10;0.73;;;;;;;;;;5084511;28;20583;-64
2022/07/02 12:20:17;;;;;;;1.77;0.60;;;;;;;;;;5069709;28;20057;-64
2022/07/02 12:22:43;;;;;;;;;;;;;;;;;;5079025;28;20078;-64
2022/07/02 12:25:09;;;;;;;4.53;1.05;;;;;;;;;;5076563;28;19967;-64
2022/07/02 12:27:36;;;;;;;1.95;0.77;;;;;;;;;;5078647;28;20118;-64
2022/07/02 12:30:15;;;;;;;3.10;0.90;;;;;;;;;;5080043;28;20049;-64
2022/07/02 12:32:41;;;;;;;1.42;0.65;;;;;;;;;;5079302;28;20049;-64
2022/07/02 12:35:10;;;;;;;2.63;0.68;;;;;;;;;;5064472;28;20553;-64
2022/07/02 12:37:42;;;;;;;2.30;0.70;;;;;;;;;;5064065;28;20041;-64
2022/07/02 12:40:10;;;;;;;6.18;0.50;;;;;;;;;;5064035;28;20064;-64
2022/07/02 12:42:49;;;;;;;1.63;0.45;;;;;;;;;;5064176;28;20071;-64
2022/07/02 12:45:22;;;;;;;1.90;0.60;;;;;;;;;;5064260;28;20041;-64
2022/07/02 12:48:10;;;;;;;2.35;0.80;;;;;;;;;;5076147;28;20505;-64
2022/07/02 12:50:38;;;;;;;2.05;0.63;;;;;;;;;;5064474;28;20124;-64
2022/07/02 12:53:05;;;;;;;1.75;0.50;;;;;;;;;;5086447;28;20067;-64
2022/07/02 12:55:36;;;;;;;3.92;0.88;;;;;;;;;;5063157;28;20064;-64
2022/07/02 12:58:04;;;;;;;4.78;0.47;;;;;;;;;;5064060;28;20120;-64
2022/07/02 13:00:31;;;;;;;0.85;0.40;;;;;;;;;;5089695;28;20060;-64
2022/07/02 13:03:01;;;;;;;0.98;0.30;;;;;;;;;;5080605;28;20080;-64
2022/07/02 13:05:27;;;;;;;2.88;0.65;;;;;;;;;;5094804;28;20271;-64
2022/07/02 13:07:53;;;;;;;1.38;0.60;;;;;;;;;;5085570;28;20152;-64
2022/07/02 13:10:19;;;;;;;2.00;0.52;;;;;;;;;;5088988;28;20040;-64
2022/07/02 13:12:46;;;;;;;2.67;0.82;;;;;;;;;;5067653;28;20124;-64
2022/07/02 13:15:12;;;;;;;1.87;0.67;;;;;;;;;;5079864;28;20075;-64
2022/07/02 13:17:38;;;;;;;1.03;0.50;;;;;;;;;;5063612;28;20052;-64
2022/07/02 13:20:04;;;;;;;2.10;0.53;;;;;;;;;;5064084;28;20060;-64
2022/07/02 13:22:30;;;;;;;1.48;0.50;;;;;;;;;;5063829;28;20076;-64
2022/07/02 13:24:57;;;;;;;1.92;0.43;;;;;;;;;;5079529;28;20448;-64
2022/07/02 13:27:23;;;;;;;2.85;0.68;;;;;;;;;;5080365;28;20104;-64
2022/07/02 13:29:54;;;;;;;2.38;0.60;;;;;;;;;;5079574;28;20139;-64
2022/07/02 13:32:20;;;;;;;2.20;0.50;;;;;;;;;;5063219;28;20052;-64
2022/07/02 13:34:46;;;;;;;1.90;0.90;;;;;;;;;;5092064;28;20101;-64
2022/07/02 13:37:13;;;;;;;2.40;0.73;;;;;;;;;;5088880;28;20104;-64
2022/07/02 13:39:42;;;;;;;1.75;0.73;;;;;;;;;;5068183;28;20044;-64
2022/07/02 13:42:08;;;;;;;2.53;0.50;;;;;;;;;;5075854;28;20045;-64
2022/07/02 13:44:34;;;;;;;2.92;0.80;;;;;;;;;;5078121;28;20102;-64
2022/07/02 13:47:01;;;;;;;2.22;0.57;;;;;;;;;;5063198;28;20369;-64
2022/07/02 13:49:27;;;;;;;1.63;0.60;;;;;;;;;;5080260;28;20527;-64
2022/07/02 13:51:54;;;;;;;2.03;0.70;;;;;;;;;;5096945;28;20053;-63
2022/07/02 13:54:20;;;;;;;0.90;0.37;;;;;;;;;;5082799;28;20045;-63
2022/07/02 13:56:47;;;;;;;3.53;0.70;;;;;;;;;;5096730;28;20048;-63
2022/07/02 13:59:13;;;;;;;1.60;0.40;;;;;;;;;;5082695;28;20057;-64
2022/07/02 14:01:40;;;;;;;3.83;0.70;;;;;;;;;;5067033;28;20096;-63
2022/07/02 14:04:06;;;;;;;1.42;0.43;;;;;;;;;;5080679;28;20290;-64
2022/07/02 14:06:32;;;;;;;0.70;0.40;;;;;;;;;;5079864;28;20045;-64
2022/07/02 14:08:58;;;;;;;2.53;0.60;;;;;;;;;;5068155;28;20045;-63
2022/07/02 14:11:24;;;;;;;2.70;0.63;;;;;;;;;;5067058;28;20060;-64
2022/07/02 14:13:51;;;;;;;2.27;0.60;;;;;;;;;;5066800;28;20045;-63
2022/07/02 14:16:17;;;;;;;2.25;0.73;;;;;;;;;;5082579;28;20049;-63
2022/07/02 14:18:43;;;;;;;2.03;0.57;;;;;;;;;;5080426;28;20479;-63
2022/07/02 14:21:10;;;;;;;1.57;0.60;;;;;;;;;;5070644;28;20132;-63
2022/07/02 14:23:36;;;;;;;3.77;0.90;;;;;;;;;;5092575;28;20074;-63
2022/07/02 14:26:02;;;;;;;2.63;1.00;;;;;;;;;;5068554;28;20037;-64
2022/07/02 14:28:29;;;;;;;2.75;0.98;;;;;;;;;;5085795;28;20049;-63
2022/07/02 14:30:55;;;;;;;2.42;0.65;;;;;;;;;;5080196;28;20040;-64
2022/07/02 14:33:22;;;;;;;1.48;0.50;;;;;;;;;;5081700;28;20064;-63
2022/07/02 14:35:50;;;;;;;1.43;0.60;;;;;;;;;;5082155;28;20053;-63
2022/07/02 14:38:16;;;;;;;2.35;0.50;;;;;;;;;;5096148;28;20040;-64
2022/07/02 14:40:43;;;;;;;3.30;0.47;;;;;;;;;;5081774;28;20679;-63
2022/07/02 14:43:09;;;;;;;0.80;0.47;;;;;;;;;;5072060;28;20707;-63
2022/07/02 14:45:35;;;;;;;1.75;0.55;;;;;;;;;;5070232;28;20067;-63
2022/07/02 14:48:01;;;;;;;1.87;0.70;;;;;;;;;;5071504;28;20309;-63
2022/07/02 14:50:27;;;;;;;1.10;0.47;;;;;;;;;;5066403;28;20105;-63